Time;durP1;ratioP1;P1;durP2;ratioP2;P2;SDS_P1;SDS_P2;PMS_P1;PMS_P2;Temp;Humidity;BMP_temperature;BMP_pressure;BME280_temperature;BME280_humidity;BME280_pressure;Samples;Min_cycle;Max_cycle;Signal;HPM_P1;HPM_P2
2021/11/07 00:04:37;;;;;;;11.18;6.65;;;1.50;99.90;;;;;;4993053;28;20187;-74
2021/11/07 00:09:42;;;;;;;8.38;6.50;;;1.70;99.90;;;;;;4992531;28;20184;-74
2021/11/07 00:12:30;;;;;;;12.60;7.03;;;1.50;99.90;;;;;;4992956;28;20279;-74
2021/11/07 00:14:56;;;;;;;10.60;6.68;;;1.50;99.90;;;;;;4992561;28;20232;-74
2021/11/07 00:17:26;;;;;;;11.15;6.78;;;1.80;99.90;;;;;;4991962;28;20239;-74
2021/11/07 00:20:00;;;;;;;9.32;6.63;;;1.80;99.90;;;;;;4991886;28;20216;-74
2021/11/07 00:27:35;;;;;;;9.90;7.30;;;2.00;99.90;;;;;;4992567;28;20184;-75
2021/11/07 00:30:24;;;;;;;9.52;7.43;;;1.60;99.90;;;;;;4991981;28;20278;-74
2021/11/07 00:33:13;;;;;;;18.85;8.43;;;1.60;99.90;;;;;;4991078;28;20275;-74
2021/11/07 00:38:12;;;;;;;10.70;7.07;;;1.80;99.90;;;;;;4992697;28;20183;-74
2021/11/07 00:40:44;;;;;;;14.65;6.60;;;1.90;99.90;;;;;;4992163;28;20188;-75
2021/11/07 00:45:49;;;;;;;8.03;6.00;;;1.80;99.90;;;;;;4991444;28;20270;-73
2021/11/07 00:48:25;;;;;;;12.90;7.20;;;1.70;99.90;;;;;;4992681;28;20211;-73
2021/11/07 00:51:03;;;;;;;10.48;5.85;;;1.90;99.90;;;;;;4992051;28;20583;-73
2021/11/07 00:58:39;;;;;;;11.27;6.93;;;1.70;99.90;;;;;;4991486;28;20229;-74
2021/11/07 01:01:10;;;;;;;10.57;6.97;;;1.80;99.90;;;;;;4992049;28;20640;-73
2021/11/07 01:03:36;;;;;;;9.75;7.13;;;1.90;99.90;;;;;;4991218;28;20193;-73
2021/11/07 01:06:02;;;;;;;11.95;7.22;;;2.10;99.90;;;;;;4991795;28;20271;-73
2021/11/07 01:08:28;;;;;;;11.52;6.90;;;1.60;99.90;;;;;;4991606;28;20251;-73
2021/11/07 01:10:54;;;;;;;10.20;6.57;;;1.50;99.90;;;;;;4991817;28;20754;-72
2021/11/07 01:13:20;;;;;;;9.20;6.70;;;1.60;99.90;;;;;;4992263;28;20184;-72
2021/11/07 01:15:46;;;;;;;10.20;6.47;;;1.50;99.90;;;;;;4989944;28;20275;-72
2021/11/07 01:18:12;;;;;;;8.43;6.32;;;1.50;99.90;;;;;;4992009;28;20469;-72
2021/11/07 01:20:37;;;;;;;8.73;6.93;;;1.50;99.90;;;;;;4991278;28;20212;-72
2021/11/07 01:25:36;;;;;;;9.95;7.10;;;1.50;99.90;;;;;;4990852;28;20599;-72
2021/11/07 01:28:03;;;;;;;9.02;6.60;;;1.30;99.90;;;;;;4990811;28;20251;-71
2021/11/07 01:30:32;;;;;;;13.95;7.60;;;1.30;99.90;;;;;;4990259;28;20199;-73
2021/11/07 01:33:10;;;;;;;10.32;7.15;;;1.30;99.90;;;;;;4991424;28;20194;-72
2021/11/07 01:38:28;;;;;;;8.90;6.75;;;1.50;99.90;;;;;;4991231;28;20191;-73
2021/11/07 01:43:29;;;;;;;10.10;7.70;;;1.40;99.90;;;;;;4993499;28;20559;-73
2021/11/07 01:48:47;;;;;;;10.95;8.05;;;1.50;99.90;;;;;;4993258;28;20691;-74
2021/11/07 01:51:13;;;;;;;13.10;8.35;;;1.60;99.90;;;;;;4992982;28;20577;-76
2021/11/07 01:53:39;;;;;;;12.80;8.07;;;1.50;99.90;;;;;;4992848;28;20176;-74
2021/11/07 01:56:09;;;;;;;12.25;8.35;;;1.60;99.90;;;;;;4992506;28;20216;-75
2021/11/07 01:58:36;;;;;;;9.18;8.15;;;1.70;99.90;;;;;;4988731;28;20311;-73
2021/11/07 02:01:03;;;;;;;11.82;7.90;;;1.70;99.90;;;;;;4992690;28;20189;-73
2021/11/07 02:03:29;;;;;;;12.35;8.90;;;1.70;99.90;;;;;;4992772;28;20188;-73
2021/11/07 02:05:55;;;;;;;11.83;8.50;;;1.70;99.90;;;;;;4992603;28;20189;-73
2021/11/07 02:08:21;;;;;;;12.10;9.30;;;1.90;99.90;;;;;;4993579;28;20647;-73
2021/11/07 02:10:49;;;;;;;12.63;10.18;;;1.70;99.90;;;;;;4992555;28;20588;-73
2021/11/07 02:13:15;;;;;;;10.95;9.13;;;1.70;99.90;;;;;;4992364;28;20192;-74
2021/11/07 02:15:41;;;;;;;13.18;8.60;;;1.80;99.90;;;;;;4992714;28;20227;-74
2021/11/07 02:18:07;;;;;;;11.00;8.90;;;1.80;99.90;;;;;;4993005;28;20191;-73
2021/11/07 02:20:36;;;;;;;13.17;9.00;;;1.90;99.90;;;;;;4992820;28;20455;-75
2021/11/07 02:23:08;;;;;;;10.20;8.52;;;2.00;99.90;;;;;;4992152;28;20442;-73
2021/11/07 02:25:37;;;;;;;14.70;9.60;;;1.80;99.90;;;;;;4989912;28;20209;-74
2021/11/07 02:28:04;;;;;;;12.52;8.90;;;1.90;99.90;;;;;;4992098;28;20191;-74
2021/11/07 02:30:31;;;;;;;15.80;9.35;;;2.00;99.90;;;;;;4993076;28;20192;-74
2021/11/07 02:32:58;;;;;;;14.82;8.35;;;1.80;99.90;;;;;;4992471;28;20307;-73
2021/11/07 02:35:26;;;;;;;13.25;9.40;;;1.80;99.90;;;;;;4991990;28;20223;-73
2021/11/07 02:37:52;;;;;;;13.90;9.30;;;1.50;99.90;;;;;;4990916;28;20185;-74
2021/11/07 02:40:18;;;;;;;12.85;9.80;;;1.50;99.90;;;;;;4993612;28;20192;-72
2021/11/07 02:42:46;;;;;;;11.27;9.00;;;1.90;99.90;;;;;;4995785;28;20694;-74
2021/11/07 02:45:13;;;;;;;15.55;9.45;;;1.50;99.90;;;;;;4996449;28;20453;-73
2021/11/07 02:47:40;;;;;;;12.82;9.82;;;1.60;99.90;;;;;;4996144;28;20594;-73
2021/11/07 02:50:07;;;;;;;16.88;11.93;;;1.80;99.90;;;;;;4994106;28;20566;-73
2021/11/07 02:52:33;;;;;;;12.95;10.00;;;1.50;99.90;;;;;;4993417;28;20192;-74
2021/11/07 02:54:59;;;;;;;14.52;9.55;;;1.50;99.90;;;;;;4993694;28;20281;-74
2021/11/07 02:57:25;;;;;;;14.27;9.88;;;1.50;99.90;;;;;;4996094;28;20237;-73
2021/11/07 02:59:58;;;;;;;12.60;8.90;;;1.40;99.90;;;;;;4993895;28;20189;-73
2021/11/07 03:02:25;;;;;;;13.10;9.57;;;1.40;99.90;;;;;;4993865;28;20215;-74
2021/11/07 03:04:51;;;;;;;13.35;8.20;;;1.50;99.90;;;;;;4994148;28;20181;-73
2021/11/07 03:07:17;;;;;;;15.05;9.23;;;1.20;99.90;;;;;;4994294;28;20582;-73
2021/11/07 03:09:43;;;;;;;12.53;9.27;;;1.30;99.90;;;;;;4993273;28;20315;-73
2021/11/07 03:12:10;;;;;;;12.10;9.07;;;1.30;99.90;;;;;;4987651;28;20228;-73
2021/11/07 03:14:40;;;;;;;13.45;9.65;;;1.20;99.90;;;;;;4990860;28;20470;-73
2021/11/07 03:17:06;;;;;;;14.02;9.55;;;1.30;99.90;;;;;;4994024;28;20307;-73
2021/11/07 03:19:33;;;;;;;14.90;10.07;;;1.20;99.90;;;;;;4993564;28;20598;-76
2021/11/07 03:22:02;;;;;;;13.55;10.43;;;1.40;99.90;;;;;;4993247;28;20181;-73
2021/11/07 03:24:28;;;;;;;15.48;10.77;;;1.30;99.90;;;;;;4992991;28;20185;-74
2021/11/07 03:26:54;;;;;;;17.80;10.47;;;1.30;99.90;;;;;;4993324;28;20675;-74
2021/11/07 03:29:22;;;;;;;17.15;11.38;;;1.20;99.90;;;;;;4992886;28;20566;-73
2021/11/07 03:34:26;;;;;;;14.82;10.98;;;1.40;99.90;;;;;;4993400;28;20263;-76
2021/11/07 03:36:55;;;;;;;12.38;9.82;;;1.30;99.90;;;;;;4995806;28;20589;-73
2021/11/07 03:39:23;;;;;;;14.00;10.40;;;1.20;99.90;;;;;;4995778;28;20184;-75
2021/11/07 03:41:49;;;;;;;14.05;10.77;;;1.40;99.90;;;;;;4993497;28;20188;-73
2021/11/07 03:44:17;;;;;;;13.38;9.55;;;1.30;99.90;;;;;;4993865;28;20188;-73
2021/11/07 03:46:45;;;;;;;13.93;9.98;;;1.20;99.90;;;;;;4984048;28;20199;-73
2021/11/07 03:49:11;;;;;;;14.65;10.07;;;1.30;99.90;;;;;;4995540;28;20191;-72
2021/11/07 03:51:38;;;;;;;11.40;8.43;;;1.20;99.90;;;;;;4989389;28;20189;-73
2021/11/07 03:54:05;;;;;;;10.50;8.05;;;1.30;99.90;;;;;;4989247;28;20549;-72
2021/11/07 03:56:31;;;;;;;12.13;9.02;;;1.10;99.90;;;;;;4990734;28;20208;-74
2021/11/07 03:58:57;;;;;;;12.60;8.20;;;1.40;99.90;;;;;;4990990;28;20258;-73
2021/11/07 04:01:23;;;;;;;12.13;8.53;;;1.20;99.90;;;;;;4991193;28;20204;-72
2021/11/07 04:03:48;;;;;;;15.03;9.07;;;0.80;99.90;;;;;;4991253;28;20451;-73
2021/11/07 04:06:16;;;;;;;13.73;8.33;;;1.00;99.90;;;;;;4991385;28;20188;-74
2021/11/07 04:08:42;;;;;;;10.82;7.50;;;0.90;99.90;;;;;;4991548;28;20427;-73
2021/11/07 04:11:08;;;;;;;12.20;8.00;;;0.90;99.90;;;;;;4991297;28;20195;-73
2021/11/07 04:13:38;;;;;;;13.10;8.50;;;0.90;99.90;;;;;;4991673;28;20561;-75
2021/11/07 04:16:04;;;;;;;11.35;9.85;;;0.90;99.90;;;;;;4988173;28;20193;-76
2021/11/07 04:18:29;;;;;;;17.02;10.50;;;1.00;99.90;;;;;;4991995;28;20184;-72
2021/11/07 04:20:55;;;;;;;17.17;12.17;;;1.00;99.90;;;;;;4983923;28;20660;-73
2021/11/07 04:23:21;;;;;;;18.30;12.13;;;1.00;99.90;;;;;;4989406;28;20181;-72
2021/11/07 04:25:46;;;;;;;13.10;9.70;;;1.10;99.90;;;;;;4987232;28;20668;-73
2021/11/07 04:28:12;;;;;;;14.27;9.87;;;1.20;99.90;;;;;;4989739;28;20188;-72
2021/11/07 04:30:37;;;;;;;15.40;11.90;;;1.40;99.90;;;;;;4990302;28;20536;-73
2021/11/07 04:33:03;;;;;;;16.03;10.50;;;1.30;99.90;;;;;;4983647;28;20283;-72
2021/11/07 04:35:29;;;;;;;17.50;10.70;;;1.40;99.90;;;;;;4991191;28;20243;-73
2021/11/07 04:37:55;;;;;;;14.27;10.97;;;1.30;99.90;;;;;;4989241;28;20189;-72
2021/11/07 04:40:21;;;;;;;16.80;12.20;;;1.40;99.90;;;;;;4991102;28;20455;-72
2021/11/07 04:42:47;;;;;;;14.57;9.43;;;1.60;99.90;;;;;;4991440;28;20440;-73
2021/11/07 04:45:13;;;;;;;14.30;9.77;;;1.30;99.90;;;;;;4990060;28;20189;-73
2021/11/07 04:47:39;;;;;;;16.90;9.57;;;1.50;99.90;;;;;;4990625;28;20184;-73
2021/11/07 04:50:07;;;;;;;16.77;9.83;;;1.40;99.90;;;;;;4990868;28;20354;-73
2021/11/07 04:52:33;;;;;;;16.48;10.90;;;1.30;99.90;;;;;;4989922;28;20185;-72
2021/11/07 04:54:58;;;;;;;14.23;10.33;;;1.30;99.90;;;;;;4985663;28;20212;-72
2021/11/07 04:57:24;;;;;;;12.07;9.67;;;1.30;99.90;;;;;;4983064;28;20826;-73
2021/11/07 04:59:50;;;;;;;14.60;10.87;;;1.40;99.90;;;;;;4986340;28;20255;-72
2021/11/07 05:02:16;;;;;;;13.20;10.13;;;1.50;99.90;;;;;;4989487;28;20442;-73
2021/11/07 05:04:41;;;;;;;13.33;9.67;;;1.30;99.90;;;;;;4991074;28;20188;-72
2021/11/07 05:07:07;;;;;;;17.27;11.10;;;1.40;99.90;;;;;;4990980;28;20573;-73
2021/11/07 05:09:33;;;;;;;13.10;10.07;;;1.50;99.90;;;;;;4987971;28;20582;-74
2021/11/07 05:11:58;;;;;;;14.80;10.10;;;1.30;99.90;;;;;;4991055;28;20211;-73
2021/11/07 05:14:24;;;;;;;16.40;10.37;;;1.40;99.90;;;;;;4989786;28;20210;-73
2021/11/07 05:16:49;;;;;;;14.47;9.50;;;1.50;99.90;;;;;;4988919;28;20227;-74
2021/11/07 05:19:17;;;;;;;12.27;8.30;;;1.50;99.90;;;;;;4990708;28;20284;-73
2021/11/07 05:21:43;;;;;;;12.27;9.07;;;1.50;99.90;;;;;;4987602;28;20201;-73
2021/11/07 05:24:09;;;;;;;13.38;9.73;;;1.50;99.90;;;;;;4979912;28;20610;-74
2021/11/07 05:26:35;;;;;;;12.00;8.27;;;1.50;99.90;;;;;;4988897;28;20190;-73
2021/11/07 05:29:02;;;;;;;13.15;9.98;;;1.40;99.90;;;;;;4990168;28;20293;-75
2021/11/07 05:31:29;;;;;;;14.88;9.82;;;1.60;99.90;;;;;;4990830;28;20700;-74
2021/11/07 05:33:55;;;;;;;14.25;9.93;;;1.40;99.90;;;;;;4982125;28;20545;-74
2021/11/07 05:36:21;;;;;;;19.80;13.17;;;1.40;99.90;;;;;;4990365;28;20417;-73
2021/11/07 05:38:47;;;;;;;19.95;13.63;;;1.50;99.90;;;;;;4981540;28;20220;-75
2021/11/07 05:41:13;;;;;;;18.10;12.97;;;1.50;99.90;;;;;;4990058;28;20201;-76
2021/11/07 05:43:38;;;;;;;28.97;19.10;;;1.50;99.90;;;;;;4984629;28;20287;-74
2021/11/07 05:46:04;;;;;;;21.57;15.57;;;1.30;99.90;;;;;;4989019;28;20818;-74
2021/11/07 05:48:29;;;;;;;22.60;14.10;;;1.50;99.90;;;;;;4990587;28;20211;-74
2021/11/07 05:50:57;;;;;;;19.13;12.83;;;1.40;99.90;;;;;;4983020;28;20189;-74
2021/11/07 05:53:23;;;;;;;21.17;13.45;;;1.40;99.90;;;;;;4987815;28;20256;-73
2021/11/07 05:55:49;;;;;;;30.45;21.48;;;1.50;99.90;;;;;;4989347;28;20751;-74
2021/11/07 05:58:15;;;;;;;24.77;18.80;;;1.30;99.90;;;;;;4989175;28;20314;-76
2021/11/07 06:00:41;;;;;;;26.47;18.33;;;1.30;99.90;;;;;;4983935;28;20279;-74
2021/11/07 06:03:07;;;;;;;24.42;17.80;;;1.30;99.90;;;;;;4982377;28;20180;-73
2021/11/07 06:05:36;;;;;;;31.45;20.73;;;1.20;99.90;;;;;;4988730;28;20552;-77
2021/11/07 06:08:03;;;;;;;23.92;17.30;;;1.40;99.90;;;;;;4989729;28;20189;-74
2021/11/07 06:10:28;;;;;;;19.95;15.23;;;1.20;99.90;;;;;;4982409;28;20212;-74
2021/11/07 06:12:55;;;;;;;18.43;11.00;;;1.20;99.90;;;;;;4986194;28;20606;-74
2021/11/07 06:15:20;;;;;;;14.77;10.65;;;1.30;99.90;;;;;;4990016;28;20483;-74
2021/11/07 06:17:46;;;;;;;16.90;10.73;;;1.30;99.90;;;;;;4992897;28;20556;-75
2021/11/07 06:20:11;;;;;;;15.87;10.00;;;1.30;99.90;;;;;;4990441;28;20657;-75
2021/11/07 06:22:37;;;;;;;14.30;10.07;;;1.30;99.90;;;;;;4994246;28;20691;-76
2021/11/07 06:25:04;;;;;;;17.73;12.32;;;1.40;99.90;;;;;;4986388;28;20184;-76
2021/11/07 06:27:30;;;;;;;18.23;11.88;;;1.40;99.90;;;;;;4993378;28;20206;-74
2021/11/07 06:29:56;;;;;;;19.98;11.63;;;1.50;99.90;;;;;;4990161;28;20207;-74
2021/11/07 06:32:22;;;;;;;18.08;12.18;;;1.50;99.90;;;;;;4988009;28;20181;-75
2021/11/07 06:34:47;;;;;;;19.90;12.17;;;1.50;99.90;;;;;;4991213;28;20598;-75
2021/11/07 06:37:13;;;;;;;21.53;12.80;;;1.60;99.90;;;;;;4993538;28;20216;-75
2021/11/07 06:39:39;;;;;;;18.80;11.60;;;1.60;99.90;;;;;;4989871;28;20181;-76
2021/11/07 06:42:06;;;;;;;21.37;11.83;;;1.70;99.90;;;;;;4992991;28;20276;-76
2021/11/07 06:44:34;;;;;;;19.15;12.50;;;1.80;99.90;;;;;;4986391;28;20439;-75
2021/11/07 06:46:59;;;;;;;20.27;12.70;;;1.80;99.90;;;;;;4994081;28;20189;-76
2021/11/07 06:49:25;;;;;;;22.10;11.40;;;1.70;99.90;;;;;;4992334;28;20188;-75
2021/11/07 06:51:51;;;;;;;19.20;13.00;;;2.20;99.90;;;;;;4985687;28;20185;-75
2021/11/07 06:54:17;;;;;;;21.87;12.17;;;2.20;99.90;;;;;;4990661;28;20598;-75
2021/11/07 06:56:43;;;;;;;19.30;14.03;;;2.20;99.90;;;;;;4990693;28;20475;-74
2021/11/07 06:59:09;;;;;;;19.37;13.20;;;2.40;99.90;;;;;;4984169;28;20184;-76
2021/11/07 07:01:36;;;;;;;21.33;13.15;;;2.30;99.90;;;;;;4983259;28;20208;-74
2021/11/07 07:04:02;;;;;;;21.63;12.65;;;2.40;99.90;;;;;;4982567;28;20189;-74
2021/11/07 07:06:27;;;;;;;19.48;12.05;;;2.60;99.90;;;;;;4990073;28;20611;-75
2021/11/07 07:08:59;;;;;;;24.33;14.37;;;2.60;99.90;;;;;;4992447;28;20208;-75
2021/11/07 07:11:41;;;;;;;22.98;13.85;;;2.70;99.90;;;;;;4985955;28;20216;-75
2021/11/07 07:14:14;;;;;;;27.35;14.93;;;2.50;99.90;;;;;;4979966;28;20267;-75
2021/11/07 07:19:26;;;;;;;21.73;12.05;;;3.00;99.90;;;;;;4982663;28;20192;-77
2021/11/07 07:24:52;;;;;;;18.73;12.25;;;3.20;99.90;;;;;;4985593;28;20193;-75
2021/11/07 07:27:27;;;;;;;21.27;14.18;;;3.40;99.90;;;;;;4981905;28;20185;-75
2021/11/07 07:30:06;;;;;;;18.08;12.85;;;3.60;99.90;;;;;;4984382;28;20196;-75
2021/11/07 07:32:50;;;;;;;23.17;14.27;;;3.50;99.90;;;;;;4989352;28;20531;-75
2021/11/07 07:35:16;;;;;;;20.88;13.77;;;3.60;99.90;;;;;;4989282;28;20216;-74
2021/11/07 07:37:42;;;;;;;19.92;13.13;;;3.90;99.90;;;;;;4992611;28;20693;-75
2021/11/07 07:40:09;;;;;;;18.57;13.50;;;3.80;99.90;;;;;;4990694;28;20260;-73
2021/11/07 07:42:35;;;;;;;23.08;13.77;;;4.20;99.90;;;;;;4986665;28;20259;-74
2021/11/07 07:45:02;;;;;;;19.33;13.57;;;4.30;99.90;;;;;;4991314;28;20185;-73
2021/11/07 07:47:28;;;;;;;37.03;23.05;;;4.60;99.90;;;;;;4989501;28;20185;-73
2021/11/07 07:49:55;;;;;;;21.63;15.43;;;4.40;99.90;;;;;;4989883;28;20185;-75
2021/11/07 07:52:23;;;;;;;22.98;13.32;;;4.60;99.90;;;;;;4984535;28;20274;-72
2021/11/07 07:54:49;;;;;;;22.67;12.57;;;4.80;99.90;;;;;;4991974;28;20197;-72
2021/11/07 07:57:15;;;;;;;21.43;12.97;;;5.20;99.90;;;;;;4990048;28;20597;-75
2021/11/07 07:59:40;;;;;;;20.37;12.77;;;5.60;99.90;;;;;;4993077;28;20180;-74
2021/11/07 08:02:06;;;;;;;20.93;14.07;;;5.50;99.90;;;;;;4993163;28;20188;-74
2021/11/07 08:04:32;;;;;;;18.10;12.97;;;6.00;99.90;;;;;;4985259;28;20197;-76
2021/11/07 08:06:57;;;;;;;19.40;13.47;;;6.30;99.90;;;;;;4986636;28;20196;-75
2021/11/07 08:09:23;;;;;;;18.60;13.17;;;6.50;99.90;;;;;;4986166;28;20212;-71
2021/11/07 08:11:48;;;;;;;17.10;12.20;;;6.30;99.90;;;;;;4981344;28;20185;-72
2021/11/07 08:14:14;;;;;;;19.43;12.30;;;6.10;99.90;;;;;;4988652;28;20244;-73
2021/11/07 08:16:41;;;;;;;16.90;11.73;;;6.40;99.90;;;;;;4991675;28;20222;-74
2021/11/07 08:19:07;;;;;;;16.40;11.85;;;6.10;99.90;;;;;;4991845;28;20188;-77
2021/11/07 08:21:37;;;;;;;15.60;10.32;;;5.90;99.90;;;;;;4985627;28;20224;-75
2021/11/07 08:24:08;;;;;;;15.95;11.70;;;5.90;99.90;;;;;;4991712;28;20188;-74
2021/11/07 08:26:35;;;;;;;16.75;11.63;;;5.70;99.90;;;;;;4986387;28;20595;-75
2021/11/07 08:29:02;;;;;;;17.15;11.73;;;5.60;99.90;;;;;;4986501;28;20189;-76
2021/11/07 08:31:29;;;;;;;18.35;12.00;;;5.60;99.90;;;;;;4987593;28;20600;-75
2021/11/07 08:33:56;;;;;;;17.73;12.02;;;5.70;99.90;;;;;;4984341;28;20606;-75
2021/11/07 08:36:26;;;;;;;19.52;12.20;;;5.50;99.90;;;;;;4991221;28;20270;-76
2021/11/07 08:39:05;;;;;;;14.98;10.80;;;5.80;99.90;;;;;;4981871;28;20193;-77
2021/11/07 08:41:32;;;;;;;21.90;11.40;;;5.50;99.90;;;;;;4989763;28;20184;-74
2021/11/07 09:00:25;;;;;;;19.58;12.80;;;5.60;99.90;;;;;;4982176;28;20347;-74
2021/11/07 09:06:03;;;;;;;16.27;11.13;;;5.90;99.90;;;;;;4988112;28;20300;-73
2021/11/07 09:08:29;;;;;;;16.35;11.02;;;6.10;99.90;;;;;;4988557;28;20236;-74
2021/11/07 09:10:57;;;;;;;15.85;10.27;;;6.40;99.90;;;;;;4991434;28;20340;-74
2021/11/07 09:13:23;;;;;;;12.93;10.40;;;7.00;99.90;;;;;;4991000;28;20636;-73
2021/11/07 09:15:51;;;;;;;16.10;10.87;;;6.90;99.90;;;;;;4991357;28;20251;-75
2021/11/07 09:18:18;;;;;;;16.02;9.95;;;7.00;99.90;;;;;;4988487;28;20185;-73
2021/11/07 09:23:33;;;;;;;13.10;9.98;;;7.80;99.90;;;;;;4988654;28;20217;-72
2021/11/07 09:33:43;;;;;;;12.23;9.45;;;12.50;99.90;;;;;;4985029;28;20671;-75
2021/11/07 09:36:48;;;;;;;9.27;8.27;;;14.30;99.90;;;;;;4989401;28;20568;-73
2021/11/07 09:41:54;;;;;;;7.97;7.17;;;17.30;80.30;;;;;;4983493;28;20443;-74
2021/11/07 09:44:22;;;;;;;7.10;6.40;;;17.50;69.90;;;;;;4991509;28;20450;-73
2021/11/07 09:51:53;;;;;;;7.13;6.20;;;15.80;60.20;;;;;;4986877;28;20551;-72
2021/11/07 09:54:19;;;;;;;6.20;5.60;;;15.10;57.80;;;;;;4989727;28;20508;-74
2021/11/07 09:56:52;;;;;;;6.33;5.70;;;14.60;58.80;;;;;;4987115;28;21069;-74
2021/11/07 09:59:18;;;;;;;6.43;5.80;;;13.70;59.20;;;;;;4984799;28;20435;-74
2021/11/07 10:01:44;;;;;;;6.80;6.10;;;13.30;62.00;;;;;;4984915;28;20489;-74
2021/11/07 10:04:11;;;;;;;5.93;5.35;;;12.90;61.60;;;;;;4991815;28;20209;-74
2021/11/07 10:06:46;;;;;;;5.60;5.03;;;12.60;63.20;;;;;;4983588;28;20571;-74
2021/11/07 10:09:26;;;;;;;5.82;5.30;;;12.20;64.00;;;;;;4988360;28;20195;-74
2021/11/07 10:12:02;;;;;;;5.53;4.97;;;12.20;65.50;;;;;;4988720;28;20197;-74
2021/11/07 10:14:39;;;;;;;8.13;5.78;;;12.00;65.40;;;;;;4981747;28;20573;-74
2021/11/07 10:17:25;;;;;;;6.38;5.40;;;12.20;66.00;;;;;;4986799;28;20201;-74
2021/11/07 10:22:42;;;;;;;6.00;5.40;;;11.50;67.60;;;;;;4987447;28;20196;-75
2021/11/07 10:25:16;;;;;;;5.80;5.30;;;11.50;69.10;;;;;;4989391;28;20212;-75
2021/11/07 10:27:46;;;;;;;4.72;4.32;;;11.30;70.20;;;;;;4989806;28;20212;-74
2021/11/07 10:30:17;;;;;;;4.90;4.40;;;12.20;69.80;;;;;;4983728;28;20209;-73
2021/11/07 10:32:55;;;;;;;5.10;4.70;;;13.10;70.80;;;;;;4988343;28;20194;-71
2021/11/07 10:52:19;;;;;;;3.87;3.33;;;15.40;57.60;;;;;;4989456;28;20474;-75
2021/11/07 10:54:45;;;;;;;3.60;3.30;;;16.80;56.50;;;;;;4989496;28;20474;-74
2021/11/07 10:57:15;;;;;;;3.60;3.30;;;17.70;55.40;;;;;;4980557;28;20468;-73
2021/11/07 11:00:18;;;;;;;2.63;2.43;;;18.00;52.90;;;;;;4988043;28;20192;-75
2021/11/07 11:02:47;;;;;;;4.53;2.30;;;18.50;51.10;;;;;;4987576;28;20514;-72
2021/11/07 11:05:24;;;;;;;2.00;1.90;;;19.40;49.30;;;;;;4987234;28;20451;-72
2021/11/07 11:08:10;;;;;;;2.13;1.93;;;19.60;46.60;;;;;;4985310;28;20427;-72
2021/11/07 11:13:37;;;;;;;2.00;1.90;;;20.20;47.00;;;;;;4982876;28;20439;-73
2021/11/07 11:32:17;;;;;;;1.23;1.17;;;15.70;49.80;;;;;;4989917;28;20837;-72
2021/11/07 11:34:50;;;;;;;1.30;1.20;;;15.10;50.80;;;;;;4991916;28;20471;-73
2021/11/07 11:37:33;;;;;;;1.13;1.13;;;14.90;52.50;;;;;;4985625;28;20443;-71
2021/11/07 11:40:07;;;;;;;1.50;0.90;;;14.50;52.90;;;;;;4990178;28;20993;-70
2021/11/07 11:42:51;;;;;;;1.13;1.13;;;14.20;53.90;;;;;;4981366;28;20454;-72
2021/11/07 11:45:25;;;;;;;1.33;1.17;;;13.90;54.40;;;;;;4986229;28;20958;-70
2021/11/07 11:48:10;;;;;;;0.90;0.90;;;13.70;55.40;;;;;;4988097;28;20435;-71
2021/11/07 11:51:30;;;;;;;1.53;1.23;;;13.20;55.70;;;;;;4991233;28;20555;-71
2021/11/07 11:56:18;;;;;;;1.17;1.10;;;12.90;57.70;;;;;;4991385;28;20224;-69
2021/11/07 11:59:00;;;;;;;1.30;1.20;;;13.10;58.10;;;;;;4984399;28;20229;-70
2021/11/07 12:01:34;;;;;;;2.08;1.10;;;13.10;57.40;;;;;;4984244;28;20196;-71
2021/11/07 12:06:46;;;;;;;1.00;1.00;;;13.50;56.60;;;;;;4989803;28;20435;-72
2021/11/07 12:09:34;;;;;;;1.17;1.17;;;13.50;56.60;;;;;;4986852;28;20498;-70
2021/11/07 12:14:58;;;;;;;1.23;1.13;;;13.70;55.70;;;;;;4986823;28;20558;-71
2021/11/07 12:17:36;;;;;;;2.97;2.67;;;13.70;55.90;;;;;;4983647;28;20440;-70
2021/11/07 12:20:20;;;;;;;1.87;1.77;;;14.00;55.70;;;;;;4988758;28;20439;-70
2021/11/07 12:22:46;;;;;;;1.27;1.20;;;14.10;56.10;;;;;;4983494;28;20997;-69
2021/11/07 12:25:13;;;;;;;1.20;1.20;;;14.90;57.90;;;;;;4983685;28;20449;-69
2021/11/07 12:27:54;;;;;;;1.10;1.00;;;17.20;56.30;;;;;;4991882;28;20668;-69
2021/11/07 12:30:29;;;;;;;1.17;1.07;;;19.90;50.80;;;;;;4988616;28;20470;-69
2021/11/07 12:33:10;;;;;;;1.13;1.03;;;21.80;45.20;;;;;;4989439;28;20520;-69
2021/11/07 12:35:53;;;;;;;1.17;1.10;;;23.30;41.20;;;;;;4982319;28;20868;-72
2021/11/07 12:41:13;;;;;;;0.77;0.77;;;25.00;38.70;;;;;;4986222;28;20448;-70
2021/11/07 12:43:53;;;;;;;0.93;0.93;;;26.00;35.70;;;;;;4984675;28;20983;-71
2021/11/07 12:49:04;;;;;;;1.13;1.03;;;26.00;33.60;;;;;;4986010;28;20447;-69
2021/11/07 12:51:31;;;;;;;1.60;0.80;;;25.00;33.40;;;;;;4992540;28;20451;-69
2021/11/07 12:54:02;;;;;;;0.90;0.90;;;24.00;35.20;;;;;;4981500;28;20434;-70
2021/11/07 12:56:28;;;;;;;1.67;1.00;;;22.60;36.60;;;;;;4982579;28;20947;-71
2021/11/07 12:58:54;;;;;;;1.40;1.10;;;21.90;38.70;;;;;;4987342;28;20514;-70
2021/11/07 13:01:19;;;;;;;0.80;0.80;;;20.70;39.80;;;;;;4989820;28;20183;-69
2021/11/07 13:03:50;;;;;;;1.10;1.00;;;19.80;42.10;;;;;;4986389;28;20195;-71
2021/11/07 13:06:16;;;;;;;0.90;0.90;;;20.30;43.40;;;;;;4988707;28;20199;-69
2021/11/07 13:08:55;;;;;;;0.70;0.70;;;20.10;43.10;;;;;;4989990;28;20449;-68
2021/11/07 13:11:35;;;;;;;1.60;1.23;;;20.00;42.10;;;;;;4976776;28;20183;-69
2021/11/07 13:14:06;;;;;;;0.83;0.83;;;19.90;43.40;;;;;;4989439;28;20719;-69
2021/11/07 13:16:53;;;;;;;1.17;1.17;;;18.90;43.50;;;;;;4988717;28;20445;-69
2021/11/07 13:22:49;;;;;;;1.23;1.13;;;17.10;46.00;;;;;;4980660;28;20456;-69
2021/11/07 13:25:30;;;;;;;1.00;0.83;;;16.40;47.90;;;;;;4982190;28;20774;-69
2021/11/07 13:28:15;;;;;;;1.27;0.97;;;15.90;50.10;;;;;;4986059;28;20795;-66
2021/11/07 13:30:45;;;;;;;1.03;0.93;;;15.20;52.30;;;;;;4981757;28;20433;-68
2021/11/07 13:33:18;;;;;;;1.30;1.03;;;14.70;53.60;;;;;;4990158;28;20502;-69
2021/11/07 13:35:44;;;;;;;1.23;1.00;;;14.30;55.20;;;;;;4987261;28;20483;-68
2021/11/07 13:38:14;;;;;;;1.00;1.00;;;14.00;56.00;;;;;;4987330;28;20832;-68
2021/11/07 13:40:41;;;;;;;1.03;1.00;;;13.70;57.70;;;;;;4989893;28;20490;-67
2021/11/07 13:43:17;;;;;;;1.00;0.90;;;13.50;59.00;;;;;;4987908;28;20466;-70
2021/11/07 13:45:49;;;;;;;1.17;1.08;;;13.00;59.40;;;;;;4984725;28;20444;-67
2021/11/07 13:48:19;;;;;;;1.80;1.70;;;12.90;60.40;;;;;;4989814;28;20581;-69
2021/11/07 13:50:44;;;;;;;5.43;3.90;;;12.90;61.80;;;;;;4990245;28;20215;-69
2021/11/07 13:53:38;;;;;;;4.13;1.77;;;12.50;63.10;;;;;;4991447;28;20773;-69
2021/11/07 13:56:08;;;;;;;1.92;1.83;;;12.30;64.20;;;;;;4990764;28;20999;-72
2021/11/07 13:58:35;;;;;;;1.38;1.27;;;12.30;65.70;;;;;;4989663;28;20258;-69
2021/11/07 14:01:06;;;;;;;1.10;1.10;;;12.20;67.00;;;;;;4987684;28;20197;-71
2021/11/07 14:03:32;;;;;;;1.05;1.00;;;12.30;67.80;;;;;;4986912;28;20274;-68
2021/11/07 14:06:15;;;;;;;1.10;1.00;;;11.90;67.90;;;;;;4989710;28;20196;-68
2021/11/07 14:08:44;;;;;;;1.73;1.17;;;11.70;68.80;;;;;;4982446;28;20212;-69
2021/11/07 14:11:11;;;;;;;1.00;0.90;;;11.90;70.20;;;;;;4989641;28;20197;-70
2021/11/07 14:13:52;;;;;;;0.90;0.90;;;11.70;70.60;;;;;;4989017;28;20185;-68
2021/11/07 14:16:32;;;;;;;0.88;0.80;;;12.10;71.60;;;;;;4989848;28;20233;-70
2021/11/07 14:19:01;;;;;;;1.30;1.20;;;11.70;70.90;;;;;;4980683;28;20244;-68
2021/11/07 14:21:30;;;;;;;1.15;1.05;;;12.00;71.60;;;;;;4991502;28;20882;-70
2021/11/07 14:24:09;;;;;;;1.02;1.02;;;11.70;72.00;;;;;;4991420;28;20216;-69
2021/11/07 14:26:45;;;;;;;4.85;4.35;;;11.80;72.10;;;;;;4991718;28;20192;-70
2021/11/07 14:32:20;;;;;;;9.40;7.90;;;11.70;73.20;;;;;;4979160;28;20213;-72
2021/11/07 14:35:11;;;;;;;1.60;1.50;;;11.60;74.00;;;;;;4990375;28;20212;-71
2021/11/07 14:40:15;;;;;;;3.15;2.95;;;11.20;75.80;;;;;;4991568;28;20186;-69
2021/11/07 14:43:19;;;;;;;2.70;2.58;;;11.20;76.10;;;;;;4987314;28;20579;-70
2021/11/07 14:45:56;;;;;;;2.33;2.22;;;11.00;77.30;;;;;;4990215;28;20184;-69
2021/11/07 14:53:36;;;;;;;3.35;3.10;;;10.70;81.80;;;;;;4992268;28;20618;-68
2021/11/07 14:59:02;;;;;;;3.00;2.80;;;10.80;86.70;;;;;;4990121;28;20873;-68
2021/11/07 15:01:33;;;;;;;4.45;4.15;;;10.20;88.10;;;;;;4986164;28;20191;-69
2021/11/07 15:08:57;;;;;;;3.00;2.67;;;10.00;94.80;;;;;;4993008;28;20656;-69
2021/11/07 15:13:56;;;;;;;2.90;2.70;;;9.70;96.90;;;;;;4988000;28;20205;-71
2021/11/07 15:19:10;;;;;;;3.35;3.15;;;9.80;99.50;;;;;;4988005;28;20623;-72
2021/11/07 15:24:40;;;;;;;3.20;3.00;;;9.60;99.90;;;;;;4988074;28;20228;-72
2021/11/07 15:27:10;;;;;;;5.32;4.85;;;9.60;99.90;;;;;;4988814;28;20271;-71
2021/11/07 15:29:54;;;;;;;3.38;3.08;;;9.60;99.90;;;;;;4983066;28;20211;-72
2021/11/07 15:32:28;;;;;;;5.00;3.25;;;9.40;99.90;;;;;;4984662;28;20193;-72
2021/11/07 15:34:54;;;;;;;2.53;2.33;;;9.40;99.90;;;;;;4987232;28;20208;-71
2021/11/07 15:37:37;;;;;;;2.80;2.60;;;9.40;99.90;;;;;;4991407;28;20714;-72